ESDF/RNB METAR and TAF weather

Enter ICAO airport designator
Station Type Date Time Source
ESDF METAR 2021/09/24 06:20 UTC NOAA

ESDF 240620Z 28006KT CAVOK 09/08 Q1002


Station Type Date Time Source
ESDF Decoded METAR 2021/09/24 06:20 UTC NOAA

Ronneby, Sweden (ESDF) 56-16N 015-17E 74M
Sep 24, 2021 - 02:20 AM EDT / 2021.09.24 0620 UTC
Wind: from the W (280 degrees) at 7 MPH (6 KT):0
Visibility: greater than 7 mile(s):0
Temperature: 48 F (9 C)
Dew Point: 46 F (8 C)
Relative Humidity: 93%
Pressure (altimeter): 29.59 in. Hg (1002 hPa)
ob: ESDF 240620Z 28006KT CAVOK 09/08 Q1002
cycle: 6

Station Type Date Time Source
ESDF TAF 2018/05/29 12:27 UTC NOAA

TAF TAF ESDF 291425Z 2912/2924 07008KT CAVOK
RMK MIL

Example: see airport list